createdAt,value
2019-03-12T00:00:26.194Z,97334.55
2019-03-12T00:02:57.932Z,97333.81
2019-03-12T00:05:29.931Z,97338.54
2019-03-12T00:08:01.651Z,97349.52
2019-03-12T00:10:33.628Z,97350.81
2019-03-12T00:13:05.505Z,97350.62
2019-03-12T00:15:37.388Z,97358.41
2019-03-12T00:18:09.115Z,97360.38
2019-03-12T00:20:40.848Z,97352.30
2019-03-12T00:23:12.647Z,97365.00
2019-03-12T00:25:44.467Z,97373.75
2019-03-12T00:28:16.195Z,97376.27
2019-03-12T00:30:47.998Z,97378.66
2019-03-12T00:33:19.722Z,97380.24
2019-03-12T00:35:51.530Z,97388.03
2019-03-12T00:38:23.336Z,97399.72
2019-03-12T00:40:55.342Z,97399.06
2019-03-12T00:43:27.054Z,97417.70
2019-03-12T00:45:58.879Z,97403.62
2019-03-12T00:48:30.652Z,97410.28
2019-03-12T00:51:02.463Z,97413.17
2019-03-12T00:53:34.176Z,97420.30
2019-03-12T00:56:06.071Z,97416.23
2019-03-12T00:58:37.790Z,97422.17
2019-03-12T01:01:09.754Z,97421.88
2019-03-12T01:03:41.480Z,97423.94
2019-03-12T01:06:13.466Z,97424.48
2019-03-12T01:08:45.255Z,97428.45
2019-03-12T01:11:16.990Z,97417.81
2019-03-12T01:13:48.712Z,97415.67
2019-03-12T01:16:20.525Z,97419.19
2019-03-12T01:18:52.589Z,97426.14
2019-03-12T01:21:24.680Z,97419.66
2019-03-12T01:23:56.824Z,97416.14
2019-03-12T01:26:28.583Z,97420.87
2019-03-12T01:29:00.375Z,97411.32
2019-03-12T01:31:32.446Z,97410.95
2019-03-12T01:34:04.173Z,97422.26
2019-03-12T01:36:36.179Z,97418.16
2019-03-12T01:39:08.705Z,97421.34
2019-03-12T01:41:40.584Z,97426.52
2019-03-12T01:44:12.315Z,97426.23
2019-03-12T01:46:44.137Z,97427.82
2019-03-12T01:49:17.019Z,97435.70
2019-03-12T01:51:48.844Z,97445.63
2019-03-12T01:54:20.581Z,97440.61
2019-03-12T01:56:52.436Z,97447.84
2019-03-12T01:59:24.173Z,97440.52
2019-03-12T02:01:56.005Z,97446.00
2019-03-12T02:04:27.810Z,97447.56
2019-03-12T02:06:59.633Z,97445.72
2019-03-12T02:09:31.999Z,97453.97
2019-03-12T02:12:03.964Z,97457.77
2019-03-12T02:14:35.979Z,97450.63
2019-03-12T02:17:08.299Z,97451.92
2019-03-12T02:19:40.275Z,97448.03
2019-03-12T02:22:12.029Z,97456.58
2019-03-12T02:24:52.750Z,97461.38
2019-03-12T02:27:17.526Z,97464.56
2019-03-12T02:29:49.261Z,97474.30
2019-03-12T02:32:21.036Z,97458.53
2019-03-12T02:34:52.914Z,97464.75
2019-03-12T02:37:24.728Z,97466.78
2019-03-12T02:39:56.455Z,97467.70
2019-03-12T02:42:28.192Z,97469.90
2019-03-12T02:45:00.534Z,97473.45
2019-03-12T02:47:34.020Z,97474.00
2019-03-12T02:50:07.371Z,97473.06
2019-03-12T02:52:39.193Z,97470.30
2019-03-12T02:55:11.219Z,97465.48
2019-03-12T02:57:42.993Z,97471.75
2019-03-12T03:00:20.162Z,97470.83
2019-03-12T03:02:52.386Z,97482.16
2019-03-12T03:05:24.705Z,97480.23
2019-03-12T03:08:02.140Z,97484.75
2019-03-12T03:10:33.979Z,97485.33
2019-03-12T03:13:05.793Z,97483.45
2019-03-12T03:15:41.054Z,97486.05
2019-03-12T03:18:13.028Z,97491.36
2019-03-12T03:20:48.216Z,97488.27
2019-03-12T03:23:20.015Z,97480.14
2019-03-12T03:25:51.836Z,97480.59
2019-03-12T03:28:23.569Z,97482.72
2019-03-12T03:30:55.391Z,97475.30
2019-03-12T03:33:27.195Z,97476.77
2019-03-12T03:35:59.002Z,97471.41
2019-03-12T03:38:30.989Z,97472.70
2019-03-12T03:41:03.113Z,97470.19
2019-03-12T03:43:35.312Z,97479.36
2019-03-12T03:46:07.216Z,97477.52
2019-03-12T03:48:38.964Z,97474.25
2019-03-12T03:51:11.789Z,97475.37
2019-03-12T03:53:43.619Z,97485.71
2019-03-12T03:56:15.431Z,97481.53
2019-03-12T03:58:47.506Z,97481.69
2019-03-12T04:01:19.396Z,97489.85
2019-03-12T04:03:51.290Z,97491.34
2019-03-12T04:06:23.093Z,97495.94
2019-03-12T04:08:54.840Z,97490.42
2019-03-12T04:11:26.573Z,97497.34
2019-03-12T04:13:58.321Z,97492.02
2019-03-12T04:16:30.052Z,97495.96
2019-03-12T04:19:01.875Z,97499.52
2019-03-12T04:21:33.706Z,97487.47
2019-03-12T04:24:05.903Z,97489.88
2019-03-12T04:26:37.759Z,97486.93
2019-03-12T04:29:09.581Z,97485.58
2019-03-12T04:31:42.281Z,97486.75
2019-03-12T04:34:17.171Z,97487.09
2019-03-12T04:36:50.531Z,97478.93
2019-03-12T04:39:22.429Z,97478.34
2019-03-12T04:41:54.250Z,97477.77
2019-03-12T04:44:25.994Z,97487.47
2019-03-12T04:46:57.877Z,97483.59
2019-03-12T04:49:29.619Z,97483.02
2019-03-12T04:52:01.438Z,97478.39
2019-03-12T04:54:33.422Z,97480.80
2019-03-12T04:57:05.229Z,97483.91
2019-03-12T04:59:37.304Z,97492.39
2019-03-12T05:02:09.828Z,97493.29
2019-03-12T05:04:41.568Z,97493.37
2019-03-12T05:07:13.293Z,97486.66
2019-03-12T05:09:45.039Z,97486.82
2019-03-12T05:12:16.848Z,97492.36
2019-03-12T05:14:48.743Z,97483.47
2019-03-12T05:17:29.793Z,97481.72
2019-03-12T05:20:01.525Z,97480.58
2019-03-12T05:22:33.331Z,97480.84
2019-03-12T05:25:05.717Z,97476.41
2019-03-12T05:27:37.603Z,97475.65
2019-03-12T05:30:14.583Z,97482.26
2019-03-12T05:32:46.473Z,97472.98
2019-03-12T05:35:18.369Z,97478.28
2019-03-12T05:37:50.173Z,97473.06
2019-03-12T05:40:22.006Z,97472.11
2019-03-12T05:42:53.887Z,97477.03
2019-03-12T05:45:25.959Z,97467.42
2019-03-12T05:47:57.861Z,97470.81
2019-03-12T05:50:29.845Z,97474.24
2019-03-12T05:53:14.002Z,97479.12
2019-03-12T05:55:45.925Z,97481.98
2019-03-12T05:58:17.821Z,97479.05
2019-03-12T06:00:49.644Z,97485.19
2019-03-12T06:03:21.522Z,97481.23
2019-03-12T06:05:53.411Z,97486.20
2019-03-12T06:08:25.314Z,97479.65
2019-03-12T06:10:57.541Z,97477.41
2019-03-12T06:13:29.779Z,97473.02
2019-03-12T06:16:02.057Z,97475.75
2019-03-12T06:18:33.801Z,97470.85
2019-03-12T06:21:06.131Z,97477.19
2019-03-12T06:23:37.896Z,97480.65
2019-03-12T06:26:09.788Z,97474.20
2019-03-12T06:28:41.762Z,97480.69
2019-03-12T06:31:31.096Z,97482.75
2019-03-12T06:34:18.871Z,97485.37
2019-03-12T06:37:04.582Z,97480.42
2019-03-12T06:39:44.771Z,97482.02
2019-03-12T06:42:27.625Z,97484.16
2019-03-12T06:45:24.785Z,97477.94
2019-03-12T06:48:06.087Z,97481.88
2019-03-12T06:50:55.401Z,97467.95
2019-03-12T06:53:43.801Z,97462.58
2019-03-12T06:56:32.840Z,97462.52
2019-03-12T06:59:22.837Z,97457.20
2019-03-12T07:02:22.418Z,97452.60
2019-03-12T07:05:25.114Z,97452.38
2019-03-12T07:08:06.914Z,97448.08
2019-03-12T07:10:53.411Z,97447.47
2019-03-12T07:13:44.187Z,97442.22
2019-03-12T07:16:35.294Z,97441.05
2019-03-12T07:19:13.145Z,97443.90
2019-03-12T07:22:02.477Z,97440.98
2019-03-12T07:25:08.310Z,97431.20
2019-03-12T07:27:47.998Z,97432.71
2019-03-12T07:30:46.875Z,97431.89
2019-03-12T07:33:23.113Z,97432.83
2019-03-12T07:36:04.236Z,97429.69
2019-03-12T07:38:43.883Z,97419.76
2019-03-12T07:41:46.695Z,97411.88
2019-03-12T07:44:30.844Z,97406.09
2019-03-12T07:47:34.885Z,97400.27
2019-03-12T07:50:04.024Z,97402.48
2019-03-12T07:53:03.914Z,97392.63
2019-03-12T07:55:54.696Z,97395.78
2019-03-12T07:58:37.444Z,97392.33
2019-03-12T08:01:16.560Z,97388.42
2019-03-12T08:04:07.216Z,97388.63
2019-03-12T08:07:00.981Z,97388.78
2019-03-12T08:09:54.838Z,97379.81
2019-03-12T08:12:43.949Z,97377.03
2019-03-12T08:15:33.432Z,97375.77
2019-03-12T08:18:19.904Z,97369.94
2019-03-12T08:21:03.396Z,97364.53
2019-03-12T08:23:59.939Z,97361.16
2019-03-12T08:26:41.621Z,97367.78
2019-03-12T08:29:29.973Z,97355.39
2019-03-12T08:32:19.389Z,97345.39
2019-03-12T08:35:10.187Z,97353.96
2019-03-12T08:37:59.346Z,97345.93
2019-03-12T08:40:52.487Z,97338.59
2019-03-12T08:43:28.026Z,97337.81
2019-03-12T08:46:18.199Z,97333.48
2019-03-12T08:49:07.620Z,97326.00
2019-03-12T08:51:46.653Z,97324.09
2019-03-12T08:54:27.546Z,97318.33
2019-03-12T08:57:21.529Z,97304.97
2019-03-12T09:00:12.436Z,97303.17
2019-03-12T09:03:01.592Z,97312.27
2019-03-12T09:05:50.543Z,97299.48
2019-03-12T09:08:35.301Z,97288.30
2019-03-12T09:11:24.754Z,97287.20
2019-03-12T09:14:18.583Z,97286.41
2019-03-12T09:17:18.390Z,97279.25
2019-03-12T09:20:01.587Z,97281.92
2019-03-12T09:22:42.607Z,97283.55
2019-03-12T09:25:48.300Z,97287.84
2019-03-12T09:28:41.789Z,97272.91
2019-03-12T09:31:31.461Z,97268.38
2019-03-12T09:34:20.812Z,97268.05
2019-03-12T09:37:02.718Z,97259.48
2019-03-12T09:39:50.417Z,97260.52
2019-03-12T09:42:43.234Z,97247.64
2019-03-12T09:45:32.732Z,97234.78
2019-03-12T09:48:35.452Z,97229.95
2019-03-12T09:51:37.981Z,97231.09
2019-03-12T09:54:38.281Z,97222.71
2019-03-12T09:57:28.673Z,97222.47
2019-03-12T10:00:16.333Z,97217.59
2019-03-12T10:02:59.721Z,97217.72
2019-03-12T10:05:59.883Z,97206.33
2019-03-12T10:08:49.247Z,97200.08
2019-03-12T10:11:29.539Z,97198.55
2019-03-12T10:14:10.615Z,97193.92
2019-03-12T10:16:56.843Z,97197.47
2019-03-12T10:19:47.173Z,97187.86
2019-03-12T10:22:36.310Z,97187.61
2019-03-12T10:25:25.418Z,97183.00
2019-03-12T10:28:17.530Z,97175.17
2019-03-12T10:31:06.971Z,97170.55
2019-03-12T10:33:55.860Z,97161.77
2019-03-12T10:36:49.432Z,97161.27
2019-03-12T10:40:01.305Z,97153.31
2019-03-12T10:42:41.256Z,97150.34
2019-03-12T10:45:23.763Z,97151.21
2019-03-12T10:47:56.120Z,97139.67
2019-03-12T10:50:28.437Z,97140.50
2019-03-12T10:53:00.308Z,97130.03
2019-03-12T10:55:32.042Z,97118.10
2019-03-12T10:58:03.911Z,97105.27
2019-03-12T11:00:36.117Z,97101.83
2019-03-12T11:03:09.436Z,97096.41
2019-03-12T11:05:46.323Z,97093.23
2019-03-12T11:08:15.032Z,97085.14
2019-03-12T11:10:46.847Z,97084.81
2019-03-12T11:13:18.639Z,97077.09
2019-03-12T11:15:51.028Z,97065.80
2019-03-12T11:18:22.737Z,97064.73
2019-03-12T11:20:54.557Z,97058.04
2019-03-12T11:23:26.347Z,97065.73
2019-03-12T11:25:58.403Z,97072.83
2019-03-12T11:28:30.210Z,97063.08
2019-03-12T11:31:02.007Z,97056.97
2019-03-12T11:33:33.799Z,97035.73
2019-03-12T11:36:05.683Z,97038.58
2019-03-12T11:38:37.547Z,97032.72
2019-03-12T11:41:09.868Z,97038.31
2019-03-12T11:43:41.604Z,97021.33
2019-03-12T11:46:13.476Z,97010.62
2019-03-12T11:48:45.334Z,97015.92
2019-03-12T11:51:17.205Z,96999.79
2019-03-12T11:53:48.988Z,96992.19
2019-03-12T11:56:20.958Z,96985.83
2019-03-12T11:58:52.729Z,96980.15
2019-03-12T12:01:24.851Z,96969.67
2019-03-12T12:03:56.642Z,96961.91
2019-03-12T12:06:28.512Z,96968.54
2019-03-12T12:09:00.358Z,96963.00
2019-03-12T12:11:33.691Z,96950.59
2019-03-12T12:14:05.554Z,96952.52
2019-03-12T12:16:37.357Z,96949.94
2019-03-12T12:19:10.150Z,96947.80
2019-03-12T12:21:42.017Z,96929.63
2019-03-12T12:24:13.814Z,96923.72
2019-03-12T12:26:45.814Z,96917.81
2019-03-12T12:29:17.607Z,96908.55
2019-03-12T12:31:49.339Z,96892.59
2019-03-12T12:34:22.097Z,96887.01
2019-03-12T12:36:53.973Z,96875.05
2019-03-12T12:39:25.704Z,96859.42
2019-03-12T12:41:57.437Z,96858.32
2019-03-12T12:44:29.493Z,96847.52
2019-03-12T12:47:01.271Z,96840.98
2019-03-12T12:49:33.124Z,96833.70
2019-03-12T12:52:04.919Z,96827.86
2019-03-12T12:54:36.813Z,96810.05
2019-03-12T12:57:09.503Z,96812.96
2019-03-12T12:59:41.474Z,96804.69
2019-03-12T13:02:13.603Z,96796.04
2019-03-12T13:04:45.405Z,96792.16
2019-03-12T13:07:17.220Z,96786.84
2019-03-12T13:09:48.952Z,96778.67
2019-03-12T13:12:20.776Z,96776.74
2019-03-12T13:14:52.485Z,96767.75
2019-03-12T13:17:24.219Z,96757.09
2019-03-12T13:19:55.944Z,96752.07
2019-03-12T13:22:27.924Z,96749.14
2019-03-12T13:24:59.651Z,96750.68
2019-03-12T13:27:41.774Z,96736.67
2019-03-12T13:30:05.468Z,96719.81
2019-03-12T13:32:37.916Z,96719.19
2019-03-12T13:35:10.656Z,96719.27
2019-03-12T13:37:42.585Z,96726.81
2019-03-12T13:40:16.064Z,96720.45
2019-03-12T13:42:48.060Z,96721.75
2019-03-12T13:45:20.352Z,96707.87
2019-03-12T13:47:52.368Z,96715.20
2019-03-12T13:50:24.322Z,96703.66
2019-03-12T13:52:56.259Z,96703.70
2019-03-12T13:55:28.088Z,96705.52
2019-03-12T13:58:00.225Z,96694.75
2019-03-12T14:00:33.524Z,96679.07
2019-03-12T14:03:05.592Z,96680.67
2019-03-12T14:05:37.408Z,96676.25
2019-03-12T14:08:09.364Z,96663.17
2019-03-12T14:10:41.239Z,96665.69
2019-03-12T14:13:13.142Z,96661.13
2019-03-12T14:15:44.997Z,96646.53
2019-03-12T14:18:16.802Z,96652.41
2019-03-12T14:20:52.055Z,96647.78
2019-03-12T14:23:43.127Z,96643.02
2019-03-12T14:26:15.710Z,96648.98
2019-03-12T14:28:47.778Z,96629.54
2019-03-12T14:31:20.624Z,96629.73
2019-03-12T14:33:52.769Z,96619.92
2019-03-12T14:36:24.562Z,96618.30
2019-03-12T14:38:56.458Z,96607.81
2019-03-12T14:41:28.248Z,96602.86
2019-03-12T14:44:00.165Z,96598.58
2019-03-12T14:46:32.043Z,96584.41
2019-03-12T14:49:06.550Z,96586.07
2019-03-12T14:52:09.282Z,96579.52
2019-03-12T14:54:41.166Z,96568.41
2019-03-12T14:57:13.226Z,96550.34
2019-03-12T14:59:45.108Z,96543.78
2019-03-12T15:02:17.225Z,96540.68
2019-03-12T15:04:49.043Z,96525.20
2019-03-12T15:07:20.919Z,96518.94
2019-03-12T15:09:52.654Z,96509.70
2019-03-12T15:12:24.387Z,96503.64
2019-03-12T15:14:56.117Z,96500.77
2019-03-12T15:17:27.854Z,96486.12
2019-03-12T15:19:59.591Z,96483.47
2019-03-12T15:22:31.352Z,96469.54
2019-03-12T15:25:03.240Z,96470.91
2019-03-12T15:27:35.042Z,96467.77
2019-03-12T15:30:12.027Z,96456.92
2019-03-12T15:32:43.762Z,96455.59
2019-03-12T15:35:15.581Z,96441.44
2019-03-12T15:37:47.713Z,96431.77
2019-03-12T15:40:20.496Z,96421.25
2019-03-12T15:42:52.236Z,96413.05
2019-03-12T15:45:23.984Z,96408.56
2019-03-12T15:47:55.804Z,96407.31
2019-03-12T15:50:27.702Z,96401.31
2019-03-12T15:52:59.565Z,96396.23
2019-03-12T15:55:31.309Z,96381.35
2019-03-12T15:58:03.183Z,96378.09
2019-03-12T16:00:35.143Z,96371.20
2019-03-12T16:03:06.955Z,96373.86
2019-03-12T16:05:38.772Z,96366.18
2019-03-12T16:08:10.812Z,96363.08
2019-03-12T16:10:42.634Z,96355.98
2019-03-12T16:13:14.704Z,96354.31
2019-03-12T16:15:46.425Z,96345.14
2019-03-12T16:18:18.190Z,96337.91
2019-03-12T16:20:49.979Z,96331.31
2019-03-12T16:23:21.711Z,96324.12
2019-03-12T16:25:53.515Z,96312.95
2019-03-12T16:28:25.320Z,96306.14
2019-03-12T16:30:57.209Z,96308.34
2019-03-12T16:33:28.940Z,96300.56
2019-03-12T16:36:00.827Z,96283.38
2019-03-12T16:38:32.707Z,96281.91
2019-03-12T16:41:04.532Z,96274.23
2019-03-12T16:43:36.390Z,96275.50
2019-03-12T16:46:08.525Z,96266.27
2019-03-12T16:48:40.315Z,96266.61
2019-03-12T16:51:12.133Z,96261.66
2019-03-12T16:53:43.870Z,96251.73
2019-03-12T16:56:16.012Z,96251.67
2019-03-12T16:58:47.731Z,96245.28
2019-03-12T17:01:19.478Z,96243.48
2019-03-12T17:03:51.732Z,96241.55
2019-03-12T17:06:23.541Z,96249.50
2019-03-12T17:08:55.346Z,96235.48
2019-03-12T17:11:27.103Z,96223.98
2019-03-12T17:13:58.909Z,96219.38
2019-03-12T17:16:30.731Z,96216.81
2019-03-12T17:19:02.467Z,96222.54
2019-03-12T17:21:34.366Z,96212.13
2019-03-12T17:24:06.505Z,96211.56
2019-03-12T17:26:38.263Z,96191.22
2019-03-12T17:29:11.245Z,96200.27
2019-03-12T17:31:42.986Z,96189.64
2019-03-12T17:34:14.723Z,96186.72
2019-03-12T17:36:46.474Z,96179.50
2019-03-12T17:39:18.189Z,96177.53
2019-03-12T17:41:49.928Z,96166.78
2019-03-12T17:44:21.652Z,96163.27
2019-03-12T17:46:53.387Z,96160.11
2019-03-12T17:49:25.289Z,96158.30
2019-03-12T17:51:57.014Z,96147.48
2019-03-12T17:54:31.921Z,96145.21
2019-03-12T17:57:02.451Z,96138.14
2019-03-12T17:59:34.675Z,96131.66
2019-03-12T18:02:06.637Z,96136.18
2019-03-12T18:04:38.371Z,96127.80
2019-03-12T18:07:31.250Z,96126.89
2019-03-12T18:10:03.176Z,96118.83
2019-03-12T18:12:36.782Z,96113.45
2019-03-12T18:15:11.014Z,96105.47
2019-03-12T18:17:43.492Z,96098.66
2019-03-12T18:20:16.468Z,96092.05
2019-03-12T18:22:48.285Z,96071.86
2019-03-12T18:25:25.804Z,96066.66
2019-03-12T18:27:57.982Z,96066.02
2019-03-12T18:30:30.148Z,96057.97
2019-03-12T18:33:02.436Z,96050.41
2019-03-12T18:35:34.319Z,96046.97
2019-03-12T18:38:06.209Z,96040.69
2019-03-12T18:40:38.023Z,96033.90
2019-03-12T18:43:09.920Z,96026.98
2019-03-12T18:45:41.732Z,96028.81
2019-03-12T18:48:14.631Z,96019.70
2019-03-12T18:50:47.076Z,96026.59
2019-03-12T18:53:18.982Z,96031.41
2019-03-12T18:56:05.859Z,96035.56
2019-03-12T18:58:38.022Z,96017.98
2019-03-12T19:01:13.526Z,96011.56
2019-03-12T19:03:46.518Z,96008.45
2019-03-12T19:06:18.496Z,96007.98
2019-03-12T19:08:50.403Z,96003.22
2019-03-12T19:11:22.424Z,95996.77
2019-03-12T19:13:54.295Z,96003.01
2019-03-12T19:16:26.113Z,95997.59
2019-03-12T19:18:58.022Z,95985.13
2019-03-12T19:21:29.949Z,95975.77
2019-03-12T19:24:01.818Z,95977.02
2019-03-12T19:26:34.613Z,95963.26
2019-03-12T19:29:06.490Z,95950.20
2019-03-12T19:31:53.552Z,95941.61
2019-03-12T19:34:36.189Z,95927.83
2019-03-12T19:37:08.251Z,95921.05
2019-03-12T19:39:40.059Z,95918.02
2019-03-12T19:42:11.968Z,95908.37
2019-03-12T19:44:43.835Z,95912.97
2019-03-12T19:47:15.716Z,95911.62
2019-03-12T19:49:47.514Z,95899.30
2019-03-12T19:52:20.410Z,95893.72
2019-03-12T19:54:52.137Z,95903.56
2019-03-12T19:57:24.916Z,95896.38
2019-03-12T19:59:56.780Z,95887.81
2019-03-12T20:02:29.037Z,95894.00
2019-03-12T20:05:00.833Z,95899.19
2019-03-12T20:07:33.930Z,95889.31
2019-03-12T20:10:58.454Z,95884.58
2019-03-12T20:14:31.275Z,95877.22
2019-03-12T20:18:07.758Z,95885.34
2019-03-12T20:21:22.707Z,95878.03
2019-03-12T20:24:50.461Z,95880.98
2019-03-12T20:28:19.927Z,95874.74
2019-03-12T20:31:49.185Z,95877.02
2019-03-12T20:35:21.675Z,95860.23
2019-03-12T20:39:06.431Z,95850.25
2019-03-12T20:42:32.665Z,95831.32
2019-03-12T20:45:44.700Z,95829.00
2019-03-12T20:48:49.092Z,95823.33
2019-03-12T20:52:15.623Z,95821.16
2019-03-12T20:56:20.883Z,95809.11
2019-03-12T20:59:53.106Z,95793.04
2019-03-12T21:03:27.476Z,95788.44
2019-03-12T21:06:43.302Z,95780.65
2019-03-12T21:10:17.327Z,95764.30
2019-03-12T21:13:27.670Z,95756.27
2019-03-12T21:17:00.446Z,95742.08
2019-03-12T21:20:41.422Z,95733.94
2019-03-12T21:23:55.126Z,95723.64
2019-03-12T21:27:21.467Z,95713.52
2019-03-12T21:29:52.458Z,95705.86
2019-03-12T21:32:24.664Z,95697.53
2019-03-12T21:34:56.483Z,95691.28
2019-03-12T21:37:28.343Z,95693.44
2019-03-12T21:40:00.339Z,95693.07
2019-03-12T21:42:33.742Z,95682.46
2019-03-12T21:45:06.003Z,95670.22
2019-03-12T21:47:37.755Z,95664.33
2019-03-12T21:50:09.864Z,95654.03
2019-03-12T21:52:41.581Z,95654.85
2019-03-12T21:55:13.594Z,95641.09
2019-03-12T21:57:47.188Z,95632.80
2019-03-12T22:00:19.706Z,95627.39
2019-03-12T22:02:51.441Z,95615.28
2019-03-12T22:05:23.237Z,95612.98
2019-03-12T22:07:54.945Z,95605.47
2019-03-12T22:10:26.846Z,95605.47
2019-03-12T22:12:58.542Z,95601.56
2019-03-12T22:15:30.348Z,95599.30
2019-03-12T22:18:02.336Z,95592.27
2019-03-12T22:20:34.063Z,95584.91
2019-03-12T22:23:13.882Z,95578.71
2019-03-12T22:25:45.772Z,95579.05
2019-03-12T22:28:17.574Z,95568.12
2019-03-12T22:30:50.418Z,95563.88
2019-03-12T22:33:22.421Z,95563.73
2019-03-12T22:35:54.158Z,95558.81
2019-03-12T22:38:25.970Z,95546.41
2019-03-12T22:40:57.963Z,95547.88
2019-03-12T22:43:29.679Z,95551.64
2019-03-12T22:46:01.420Z,95545.59
2019-03-12T22:48:33.221Z,95542.63
2019-03-12T22:51:05.041Z,95538.89
2019-03-12T22:53:37.107Z,95532.38
2019-03-12T22:56:09.079Z,95532.38
2019-03-12T22:58:40.870Z,95530.26
2019-03-12T23:01:30.533Z,95529.12
2019-03-12T23:04:19.734Z,95515.07
2019-03-12T23:07:09.221Z,95524.84
2019-03-12T23:09:45.970Z,95530.73
2019-03-12T23:12:22.514Z,95528.45
2019-03-12T23:14:55.854Z,95536.28
2019-03-12T23:17:28.682Z,95546.09
2019-03-12T23:20:00.488Z,95556.85
2019-03-12T23:22:32.742Z,95563.73
2019-03-12T23:25:04.624Z,95572.06
2019-03-12T23:27:38.199Z,95589.86
2019-03-12T23:30:12.901Z,95582.20
2019-03-12T23:32:44.780Z,95565.36
2019-03-12T23:35:16.725Z,95565.37
2019-03-12T23:37:48.599Z,95576.30
2019-03-12T23:40:20.579Z,95564.37
2019-03-12T23:42:52.302Z,95560.46
2019-03-12T23:45:24.360Z,95565.03
2019-03-12T23:47:56.220Z,95565.34
2019-03-12T23:50:28.634Z,95567.47
2019-03-12T23:53:00.526Z,95570.08
2019-03-12T23:55:32.489Z,95565.69
2019-03-12T23:58:04.438Z,95567.16
